sensor_id;sensor_type;location;lat;lon;timestamp;pressure;altitude;pressure_sealevel;temperature;humidity
4022;BME280;2025;48.260;16.432;2023-02-01T00:02:21;99942.72;;;3.65;65.15
4022;BME280;2025;48.260;16.432;2023-02-01T00:04:48;99915.16;;;3.51;66.00
4022;BME280;2025;48.260;16.432;2023-02-01T00:07:15;99907.22;;;3.53;66.17
4022;BME280;2025;48.260;16.432;2023-02-01T00:09:42;99928.41;;;3.59;65.81
4022;BME280;2025;48.260;16.432;2023-02-01T00:12:09;99916.69;;;3.54;66.11
4022;BME280;2025;48.260;16.432;2023-02-01T00:14:37;99916.81;;;3.52;66.23
4022;BME280;2025;48.260;16.432;2023-02-01T00:17:05;99901.66;;;3.46;66.47
4022;BME280;2025;48.260;16.432;2023-02-01T00:19:33;99864.75;;;3.52;66.03
4022;BME280;2025;48.260;16.432;2023-02-01T00:22:00;99896.56;;;3.56;66.36
4022;BME280;2025;48.260;16.432;2023-02-01T00:24:27;99891.50;;;3.54;66.04
4022;BME280;2025;48.260;16.432;2023-02-01T00:26:54;99886.41;;;3.53;66.55
4022;BME280;2025;48.260;16.432;2023-02-01T00:29:22;99893.13;;;3.55;66.62
4022;BME280;2025;48.260;16.432;2023-02-01T00:31:51;99897.88;;;3.50;66.81
4022;BME280;2025;48.260;16.432;2023-02-01T00:34:19;99897.63;;;3.53;66.63
4022;BME280;2025;48.260;16.432;2023-02-01T00:36:47;99914.69;;;3.57;66.23
4022;BME280;2025;48.260;16.432;2023-02-01T00:39:14;99909.72;;;3.54;66.70
4022;BME280;2025;48.260;16.432;2023-02-01T00:41:41;99917.84;;;3.61;65.92
4022;BME280;2025;48.260;16.432;2023-02-01T00:44:08;99922.38;;;3.59;66.00
4022;BME280;2025;48.260;16.432;2023-02-01T00:46:35;99917.53;;;3.54;66.49
4022;BME280;2025;48.260;16.432;2023-02-01T00:49:04;99922.03;;;3.64;65.78
4022;BME280;2025;48.260;16.432;2023-02-01T00:51:32;99919.28;;;3.65;65.74
4022;BME280;2025;48.260;16.432;2023-02-01T00:53:59;99927.44;;;3.61;66.46
4022;BME280;2025;48.260;16.432;2023-02-01T00:56:26;99936.78;;;3.63;66.17
4022;BME280;2025;48.260;16.432;2023-02-01T00:58:54;99950.53;;;3.65;65.73
4022;BME280;2025;48.260;16.432;2023-02-01T01:01:24;99938.59;;;3.63;66.15
4022;BME280;2025;48.260;16.432;2023-02-01T01:03:53;99962.28;;;3.59;66.35
4022;BME280;2025;48.260;16.432;2023-02-01T01:06:24;99970.66;;;3.63;65.82
4022;BME280;2025;48.260;16.432;2023-02-01T01:08:52;99990.91;;;3.59;66.44
4022;BME280;2025;48.260;16.432;2023-02-01T01:11:22;99976.94;;;3.61;66.04
4022;BME280;2025;48.260;16.432;2023-02-01T01:13:50;99974.22;;;3.62;66.17
4022;BME280;2025;48.260;16.432;2023-02-01T01:16:18;99976.72;;;3.64;66.30
4022;BME280;2025;48.260;16.432;2023-02-01T01:18:45;99969.00;;;3.62;66.42
4022;BME280;2025;48.260;16.432;2023-02-01T01:21:15;99967.59;;;3.58;66.73
4022;BME280;2025;48.260;16.432;2023-02-01T01:23:44;99974.69;;;3.67;65.83
4022;BME280;2025;48.260;16.432;2023-02-01T01:26:14;99974.44;;;3.70;65.79
4022;BME280;2025;48.260;16.432;2023-02-01T01:28:41;99970.19;;;3.69;65.92
4022;BME280;2025;48.260;16.432;2023-02-01T01:31:08;99970.44;;;3.66;66.08
4022;BME280;2025;48.260;16.432;2023-02-01T01:33:36;99958.09;;;3.68;65.98
4022;BME280;2025;48.260;16.432;2023-02-01T01:36:05;99954.91;;;3.65;65.73
4022;BME280;2025;48.260;16.432;2023-02-01T01:38:32;99967.22;;;3.63;66.15
4022;BME280;2025;48.260;16.432;2023-02-01T01:41:00;99956.09;;;3.61;66.15
4022;BME280;2025;48.260;16.432;2023-02-01T01:43:52;99951.97;;;3.58;66.13
4022;BME280;2025;48.260;16.432;2023-02-01T01:46:21;99945.31;;;3.65;66.04
4022;BME280;2025;48.260;16.432;2023-02-01T01:48:51;99938.59;;;3.63;66.04
4022;BME280;2025;48.260;16.432;2023-02-01T01:51:21;99943.44;;;3.67;65.91
4022;BME280;2025;48.260;16.432;2023-02-01T01:53:55;99946.28;;;3.64;66.21
4022;BME280;2025;48.260;16.432;2023-02-01T01:56:26;99946.84;;;3.68;66.31
4022;BME280;2025;48.260;16.432;2023-02-01T01:58:56;99948.63;;;3.67;66.20
4022;BME280;2025;48.260;16.432;2023-02-01T02:01:23;99935.84;;;3.75;65.71
4022;BME280;2025;48.260;16.432;2023-02-01T02:03:51;99937.75;;;3.73;65.74
4022;BME280;2025;48.260;16.432;2023-02-01T02:06:29;99946.38;;;3.74;66.04
4022;BME280;2025;48.260;16.432;2023-02-01T02:09:00;99925.91;;;3.69;66.15
4022;BME280;2025;48.260;16.432;2023-02-01T02:11:28;99931.81;;;3.71;66.03
4022;BME280;2025;48.260;16.432;2023-02-01T02:13:57;99941.28;;;3.72;65.77
4022;BME280;2025;48.260;16.432;2023-02-01T02:19:51;99945.31;;;3.76;66.02
4022;BME280;2025;48.260;16.432;2023-02-01T02:25:48;99936.88;;;3.84;65.93
4022;BME280;2025;48.260;16.432;2023-02-01T02:28:39;99936.06;;;3.84;66.01
4022;BME280;2025;48.260;16.432;2023-02-01T02:31:36;99949.53;;;3.89;66.26
4022;BME280;2025;48.260;16.432;2023-02-01T02:34:14;99960.44;;;3.94;65.69
4022;BME280;2025;48.260;16.432;2023-02-01T02:36:53;99974.31;;;3.94;65.81
4022;BME280;2025;48.260;16.432;2023-02-01T02:39:31;99975.84;;;3.97;65.83
4022;BME280;2025;48.260;16.432;2023-02-01T02:42:06;100003.44;;;3.99;65.48
4022;BME280;2025;48.260;16.432;2023-02-01T02:44:56;99969.44;;;4.01;65.17
4022;BME280;2025;48.260;16.432;2023-02-01T02:47:46;99989.34;;;4.02;65.67
4022;BME280;2025;48.260;16.432;2023-02-01T02:50:24;99987.56;;;4.03;65.33
4022;BME280;2025;48.260;16.432;2023-02-01T02:53:13;99990.03;;;4.04;65.21
4022;BME280;2025;48.260;16.432;2023-02-01T02:56:00;99980.19;;;4.08;64.83
4022;BME280;2025;48.260;16.432;2023-02-01T02:58:46;99980.78;;;4.11;64.91
4022;BME280;2025;48.260;16.432;2023-02-01T03:01:31;99966.31;;;4.18;64.38
4022;BME280;2025;48.260;16.432;2023-02-01T03:04:16;99957.28;;;4.22;63.89
4022;BME280;2025;48.260;16.432;2023-02-01T03:06:46;99954.91;;;4.19;64.17
4022;BME280;2025;48.260;16.432;2023-02-01T03:09:18;99978.53;;;4.18;64.18
4022;BME280;2025;48.260;16.432;2023-02-01T03:11:49;99963.69;;;4.18;64.17
4022;BME280;2025;48.260;16.432;2023-02-01T03:14:41;99980.31;;;4.17;63.45
4022;BME280;2025;48.260;16.432;2023-02-01T03:17:12;99961.91;;;4.19;63.44
4022;BME280;2025;48.260;16.432;2023-02-01T03:19:43;99973.41;;;4.16;63.23
4022;BME280;2025;48.260;16.432;2023-02-01T03:22:19;99979.38;;;4.07;64.06
4022;BME280;2025;48.260;16.432;2023-02-01T03:24:50;99983.88;;;4.05;63.79
4022;BME280;2025;48.260;16.432;2023-02-01T03:27:21;99978.19;;;4.00;64.17
4022;BME280;2025;48.260;16.432;2023-02-01T03:29:52;99971.94;;;3.91;64.90
4022;BME280;2025;48.260;16.432;2023-02-01T03:32:22;99974.66;;;3.90;65.12
4022;BME280;2025;48.260;16.432;2023-02-01T03:34:49;99973.13;;;3.87;65.03
4022;BME280;2025;48.260;16.432;2023-02-01T03:37:23;99982.72;;;3.87;65.38
4022;BME280;2025;48.260;16.432;2023-02-01T03:39:57;99988.78;;;3.87;65.40
4022;BME280;2025;48.260;16.432;2023-02-01T03:42:30;99978.91;;;3.91;64.45
4022;BME280;2025;48.260;16.432;2023-02-01T03:45:05;99977.28;;;3.90;64.70
4022;BME280;2025;48.260;16.432;2023-02-01T03:47:37;99982.00;;;3.96;64.43
4022;BME280;2025;48.260;16.432;2023-02-01T03:50:08;99996.22;;;3.92;64.55
4022;BME280;2025;48.260;16.432;2023-02-01T03:52:42;99990.06;;;3.93;64.64
4022;BME280;2025;48.260;16.432;2023-02-01T03:55:11;99983.66;;;3.97;64.47
4022;BME280;2025;48.260;16.432;2023-02-01T03:57:43;100003.78;;;3.95;64.60
4022;BME280;2025;48.260;16.432;2023-02-01T04:00:17;99998.84;;;3.92;64.72
4022;BME280;2025;48.260;16.432;2023-02-01T04:02:44;99997.88;;;3.93;64.56
4022;BME280;2025;48.260;16.432;2023-02-01T04:05:11;100000.84;;;3.99;64.11
4022;BME280;2025;48.260;16.432;2023-02-01T04:07:39;100000.22;;;4.07;63.53
4022;BME280;2025;48.260;16.432;2023-02-01T04:10:07;99995.81;;;4.08;63.54
4022;BME280;2025;48.260;16.432;2023-02-01T04:12:34;99990.03;;;4.04;63.82
4022;BME280;2025;48.260;16.432;2023-02-01T04:15:01;99999.75;;;4.02;63.62
4022;BME280;2025;48.260;16.432;2023-02-01T04:17:28;100006.50;;;4.05;64.27
4022;BME280;2025;48.260;16.432;2023-02-01T04:19:56;99999.03;;;4.00;64.48
4022;BME280;2025;48.260;16.432;2023-02-01T04:22:23;100005.34;;;3.97;64.57
4022;BME280;2025;48.260;16.432;2023-02-01T04:24:51;100000.47;;;3.93;65.00
4022;BME280;2025;48.260;16.432;2023-02-01T04:27:18;100003.44;;;3.88;65.73
4022;BME280;2025;48.260;16.432;2023-02-01T04:29:45;99998.22;;;3.88;65.59
4022;BME280;2025;48.260;16.432;2023-02-01T04:32:12;99980.25;;;3.85;66.19
4022;BME280;2025;48.260;16.432;2023-02-01T04:34:39;99988.06;;;3.85;66.23
4022;BME280;2025;48.260;16.432;2023-02-01T04:37:06;99986.63;;;3.81;67.08
4022;BME280;2025;48.260;16.432;2023-02-01T04:39:33;99986.03;;;3.77;67.16
4022;BME280;2025;48.260;16.432;2023-02-01T04:42:01;99990.41;;;3.88;66.86
4022;BME280;2025;48.260;16.432;2023-02-01T04:44:28;99976.06;;;3.94;66.59
4022;BME280;2025;48.260;16.432;2023-02-01T04:46:55;99964.97;;;3.92;66.94
4022;BME280;2025;48.260;16.432;2023-02-01T04:49:22;99960.69;;;3.91;67.22
4022;BME280;2025;48.260;16.432;2023-02-01T04:51:50;99958.91;;;3.91;67.05
4022;BME280;2025;48.260;16.432;2023-02-01T04:54:17;99959.88;;;3.90;67.48
4022;BME280;2025;48.260;16.432;2023-02-01T04:56:45;99964.25;;;3.90;67.67
4022;BME280;2025;48.260;16.432;2023-02-01T04:59:13;99969.09;;;3.94;67.63
4022;BME280;2025;48.260;16.432;2023-02-01T05:01:40;99963.38;;;4.00;67.38
4022;BME280;2025;48.260;16.432;2023-02-01T05:04:07;99971.91;;;4.03;67.53
4022;BME280;2025;48.260;16.432;2023-02-01T05:06:34;99969.31;;;4.03;66.94
4022;BME280;2025;48.260;16.432;2023-02-01T05:09:01;99956.88;;;4.06;67.29
4022;BME280;2025;48.260;16.432;2023-02-01T05:11:28;99965.16;;;4.00;67.73
4022;BME280;2025;48.260;16.432;2023-02-01T05:14:14;99952.03;;;4.01;67.79
4022;BME280;2025;48.260;16.432;2023-02-01T05:16:41;99963.28;;;4.02;68.13
4022;BME280;2025;48.260;16.432;2023-02-01T05:19:08;99946.44;;;4.06;67.79
4022;BME280;2025;48.260;16.432;2023-02-01T05:21:35;99957.56;;;4.08;67.94
4022;BME280;2025;48.260;16.432;2023-02-01T05:24:03;99971.06;;;4.13;67.97
4022;BME280;2025;48.260;16.432;2023-02-01T05:26:38;99957.78;;;4.16;67.63
4022;BME280;2025;48.260;16.432;2023-02-01T05:29:07;99958.50;;;4.18;67.73
4022;BME280;2025;48.260;16.432;2023-02-01T05:31:36;99948.06;;;4.18;67.77
4022;BME280;2025;48.260;16.432;2023-02-01T05:34:04;99942.13;;;4.16;67.84
4022;BME280;2025;48.260;16.432;2023-02-01T05:36:31;99957.66;;;4.18;67.86
4022;BME280;2025;48.260;16.432;2023-02-01T05:38:58;99970.44;;;4.21;67.99
4022;BME280;2025;48.260;16.432;2023-02-01T05:41:25;99939.16;;;4.21;68.19
4022;BME280;2025;48.260;16.432;2023-02-01T05:43:52;99943.09;;;4.15;68.32
4022;BME280;2025;48.260;16.432;2023-02-01T05:46:19;99942.13;;;4.16;68.58
4022;BME280;2025;48.260;16.432;2023-02-01T05:48:47;99939.78;;;4.13;68.44
4022;BME280;2025;48.260;16.432;2023-02-01T05:51:14;99938.13;;;4.12;68.42
4022;BME280;2025;48.260;16.432;2023-02-01T05:53:41;99928.84;;;4.19;68.12
4022;BME280;2025;48.260;16.432;2023-02-01T05:56:08;99937.75;;;4.17;68.14
4022;BME280;2025;48.260;16.432;2023-02-01T05:58:35;99936.66;;;4.19;68.49
4022;BME280;2025;48.260;16.432;2023-02-01T06:01:03;99924.84;;;4.15;68.04
4022;BME280;2025;48.260;16.432;2023-02-01T06:03:30;99927.56;;;4.14;68.11
4022;BME280;2025;48.260;16.432;2023-02-01T06:05:59;99943.56;;;4.20;67.98
4022;BME280;2025;48.260;16.432;2023-02-01T06:08:27;99946.28;;;4.19;67.86
4022;BME280;2025;48.260;16.432;2023-02-01T06:10:58;99936.09;;;4.16;67.93
4022;BME280;2025;48.260;16.432;2023-02-01T06:13:25;99954.91;;;4.19;67.38
4022;BME280;2025;48.260;16.432;2023-02-01T06:15:52;99943.88;;;4.27;67.24
4022;BME280;2025;48.260;16.432;2023-02-01T06:18:19;99936.63;;;4.31;66.67
4022;BME280;2025;48.260;16.432;2023-02-01T06:20:52;99940.78;;;4.33;66.83
4022;BME280;2025;48.260;16.432;2023-02-01T06:23:20;99947.50;;;4.36;67.05
4022;BME280;2025;48.260;16.432;2023-02-01T06:25:50;99942.88;;;4.39;66.56
4022;BME280;2025;48.260;16.432;2023-02-01T06:28:17;99945.38;;;4.41;66.42
4022;BME280;2025;48.260;16.432;2023-02-01T06:30:44;99950.06;;;4.47;66.48
4022;BME280;2025;48.260;16.432;2023-02-01T06:33:11;99952.56;;;4.49;66.64
4022;BME280;2025;48.260;16.432;2023-02-01T06:35:40;99942.59;;;4.54;66.20
4022;BME280;2025;48.260;16.432;2023-02-01T06:38:10;99960.84;;;4.54;66.67
4022;BME280;2025;48.260;16.432;2023-02-01T06:40:38;99969.81;;;4.61;65.85
4022;BME280;2025;48.260;16.432;2023-02-01T06:43:06;99972.06;;;4.65;65.98
4022;BME280;2025;48.260;16.432;2023-02-01T06:45:33;99971.50;;;4.62;66.50
4022;BME280;2025;48.260;16.432;2023-02-01T06:48:00;99970.63;;;4.61;66.39
4022;BME280;2025;48.260;16.432;2023-02-01T06:50:27;99973.78;;;4.55;66.90
4022;BME280;2025;48.260;16.432;2023-02-01T06:52:55;99979.63;;;4.48;67.37
4022;BME280;2025;48.260;16.432;2023-02-01T06:55:21;99977.63;;;4.40;69.86
4022;BME280;2025;48.260;16.432;2023-02-01T06:57:54;99968.63;;;4.33;69.12
4022;BME280;2025;48.260;16.432;2023-02-01T07:00:22;99974.91;;;4.30;69.66
4022;BME280;2025;48.260;16.432;2023-02-01T07:02:49;99966.16;;;4.31;69.55
4022;BME280;2025;48.260;16.432;2023-02-01T07:05:16;99972.75;;;4.35;68.88
4022;BME280;2025;48.260;16.432;2023-02-01T07:07:43;99986.41;;;4.39;68.42
4022;BME280;2025;48.260;16.432;2023-02-01T07:10:12;99982.13;;;4.38;68.73
4022;BME280;2025;48.260;16.432;2023-02-01T07:12:40;99971.84;;;4.36;68.33
4022;BME280;2025;48.260;16.432;2023-02-01T07:15:12;99967.88;;;4.42;67.97
4022;BME280;2025;48.260;16.432;2023-02-01T07:17:40;99962.41;;;4.45;67.71
4022;BME280;2025;48.260;16.432;2023-02-01T07:20:10;99963.44;;;4.54;67.21
4022;BME280;2025;48.260;16.432;2023-02-01T07:22:39;99979.69;;;4.57;66.44
4022;BME280;2025;48.260;16.432;2023-02-01T07:25:08;99973.78;;;4.55;67.66
4022;BME280;2025;48.260;16.432;2023-02-01T07:27:35;99962.25;;;4.58;66.72
4022;BME280;2025;48.260;16.432;2023-02-01T07:30:03;99959.38;;;4.61;66.73
4022;BME280;2025;48.260;16.432;2023-02-01T07:32:32;99960.69;;;4.67;66.57
4022;BME280;2025;48.260;16.432;2023-02-01T07:34:59;99981.19;;;4.71;66.07
4022;BME280;2025;48.260;16.432;2023-02-01T07:37:26;99967.28;;;4.71;66.15
4022;BME280;2025;48.260;16.432;2023-02-01T07:39:53;99974.88;;;4.74;66.27
4022;BME280;2025;48.260;16.432;2023-02-01T07:42:20;99983.25;;;4.77;65.81
4022;BME280;2025;48.260;16.432;2023-02-01T07:44:47;99966.34;;;4.72;66.28
4022;BME280;2025;48.260;16.432;2023-02-01T07:47:14;99968.25;;;4.70;66.23
4022;BME280;2025;48.260;16.432;2023-02-01T07:49:42;99966.22;;;4.73;65.58
4022;BME280;2025;48.260;16.432;2023-02-01T07:52:09;99954.44;;;4.79;65.29
4022;BME280;2025;48.260;16.432;2023-02-01T07:54:38;99967.94;;;4.84;65.06
4022;BME280;2025;48.260;16.432;2023-02-01T07:57:05;99967.00;;;4.85;65.32
4022;BME280;2025;48.260;16.432;2023-02-01T07:59:34;99969.59;;;4.85;65.44
4022;BME280;2025;48.260;16.432;2023-02-01T08:02:01;99955.69;;;4.84;65.34
4022;BME280;2025;48.260;16.432;2023-02-01T08:04:26;99967.94;;;4.84;65.17
4022;BME280;2025;48.260;16.432;2023-02-01T08:06:56;99959.03;;;4.86;65.43
4022;BME280;2025;48.260;16.432;2023-02-01T08:09:23;99970.53;;;4.84;65.58
4022;BME280;2025;48.260;16.432;2023-02-01T08:11:50;99956.56;;;4.85;66.20
4022;BME280;2025;48.260;16.432;2023-02-01T08:14:17;99957.50;;;4.84;65.96
4022;BME280;2025;48.260;16.432;2023-02-01T08:16:44;99960.09;;;4.84;65.85
4022;BME280;2025;48.260;16.432;2023-02-01T08:19:10;99946.78;;;4.87;65.53
4022;BME280;2025;48.260;16.432;2023-02-01T08:21:37;99953.69;;;4.88;66.23
4022;BME280;2025;48.260;16.432;2023-02-01T08:24:08;99944.75;;;4.91;66.44
4022;BME280;2025;48.260;16.432;2023-02-01T08:26:35;99935.03;;;4.93;65.76
4022;BME280;2025;48.260;16.432;2023-02-01T08:29:05;99933.34;;;4.92;66.30
4022;BME280;2025;48.260;16.432;2023-02-01T08:31:32;99939.97;;;4.96;66.28
4022;BME280;2025;48.260;16.432;2023-02-01T08:34:01;99939.47;;;5.02;66.04
4022;BME280;2025;48.260;16.432;2023-02-01T08:36:30;99948.00;;;5.04;66.39
4022;BME280;2025;48.260;16.432;2023-02-01T08:38:57;99916.53;;;5.05;65.79
4022;BME280;2025;48.260;16.432;2023-02-01T08:41:28;99929.91;;;5.12;65.04
4022;BME280;2025;48.260;16.432;2023-02-01T08:43:55;99923.28;;;5.08;65.27
4022;BME280;2025;48.260;16.432;2023-02-01T08:46:23;99911.78;;;5.11;64.99
4022;BME280;2025;48.260;16.432;2023-02-01T08:48:51;99928.00;;;5.14;64.61
4022;BME280;2025;48.260;16.432;2023-02-01T08:51:19;99906.84;;;5.17;64.13
4022;BME280;2025;48.260;16.432;2023-02-01T08:53:47;99918.13;;;5.18;63.50
4022;BME280;2025;48.260;16.432;2023-02-01T08:56:31;99904.91;;;5.19;63.29
4022;BME280;2025;48.260;16.432;2023-02-01T08:58:58;99920.34;;;5.22;63.28
4022;BME280;2025;48.260;16.432;2023-02-01T09:01:24;99909.91;;;5.22;63.48
4022;BME280;2025;48.260;16.432;2023-02-01T09:03:51;99912.53;;;5.22;62.85
4022;BME280;2025;48.260;16.432;2023-02-01T09:06:18;99915.81;;;5.24;62.74
4022;BME280;2025;48.260;16.432;2023-02-01T09:08:45;99929.72;;;5.25;63.20
4022;BME280;2025;48.260;16.432;2023-02-01T09:11:16;99936.56;;;5.26;63.35
4022;BME280;2025;48.260;16.432;2023-02-01T09:13:47;99952.25;;;5.26;63.55
4022;BME280;2025;48.260;16.432;2023-02-01T09:16:14;99950.59;;;5.25;64.64
4022;BME280;2025;48.260;16.432;2023-02-01T09:18:41;99967.75;;;5.18;65.31
4022;BME280;2025;48.260;16.432;2023-02-01T09:21:08;99941.00;;;5.04;66.86
4022;BME280;2025;48.260;16.432;2023-02-01T09:23:35;99954.38;;;4.90;68.51
4022;BME280;2025;48.260;16.432;2023-02-01T09:26:03;99935.09;;;4.81;68.50
4022;BME280;2025;48.260;16.432;2023-02-01T09:28:31;99927.09;;;4.73;68.57
4022;BME280;2025;48.260;16.432;2023-02-01T09:31:00;99931.97;;;4.67;69.27
4022;BME280;2025;48.260;16.432;2023-02-01T09:33:28;99930.19;;;4.67;68.87
4022;BME280;2025;48.260;16.432;2023-02-01T09:35:59;99919.06;;;4.65;69.44
4022;BME280;2025;48.260;16.432;2023-02-01T09:38:26;99924.53;;;4.62;71.19
4022;BME280;2025;48.260;16.432;2023-02-01T09:40:54;99917.28;;;4.65;70.10
4022;BME280;2025;48.260;16.432;2023-02-01T09:43:33;99915.94;;;4.71;68.85
4022;BME280;2025;48.260;16.432;2023-02-01T09:46:19;99902.75;;;4.73;70.67
4022;BME280;2025;48.260;16.432;2023-02-01T09:48:49;99900.16;;;4.73;69.64
4022;BME280;2025;48.260;16.432;2023-02-01T09:51:23;99889.84;;;4.71;70.36
4022;BME280;2025;48.260;16.432;2023-02-01T09:53:59;99903.28;;;4.67;69.95
4022;BME280;2025;48.260;16.432;2023-02-01T09:56:33;99893.09;;;4.63;71.20
4022;BME280;2025;48.260;16.432;2023-02-01T09:59:05;99889.97;;;4.70;70.37
4022;BME280;2025;48.260;16.432;2023-02-01T10:01:37;99880.69;;;4.77;69.38
4022;BME280;2025;48.260;16.432;2023-02-01T10:04:06;99876.16;;;4.79;69.17
4022;BME280;2025;48.260;16.432;2023-02-01T10:06:44;99877.28;;;4.86;67.95
4022;BME280;2025;48.260;16.432;2023-02-01T10:09:23;99864.69;;;4.91;69.02
4022;BME280;2025;48.260;16.432;2023-02-01T10:12:25;99870.78;;;5.01;68.43
4022;BME280;2025;48.260;16.432;2023-02-01T10:14:59;99849.28;;;5.19;66.63
4022;BME280;2025;48.260;16.432;2023-02-01T10:17:42;99855.09;;;5.32;67.14
4022;BME280;2025;48.260;16.432;2023-02-01T10:20:18;99867.34;;;5.41;68.40
4022;BME280;2025;48.260;16.432;2023-02-01T10:22:57;99860.38;;;5.52;65.58
4022;BME280;2025;48.260;16.432;2023-02-01T10:25:31;99846.91;;;5.56;64.42
4022;BME280;2025;48.260;16.432;2023-02-01T10:28:02;99852.13;;;5.56;64.72
4022;BME280;2025;48.260;16.432;2023-02-01T10:30:31;99840.16;;;5.63;65.08
4022;BME280;2025;48.260;16.432;2023-02-01T10:33:16;99861.09;;;5.73;64.24
4022;BME280;2025;48.260;16.432;2023-02-01T10:35:45;99855.31;;;5.69;63.77
4022;BME280;2025;48.260;16.432;2023-02-01T10:38:21;99838.13;;;5.67;64.60
4022;BME280;2025;48.260;16.432;2023-02-01T10:40:52;99827.69;;;5.67;63.70
4022;BME280;2025;48.260;16.432;2023-02-01T10:43:20;99826.56;;;5.60;63.97
4022;BME280;2025;48.260;16.432;2023-02-01T10:45:47;99840.28;;;5.52;64.46
4022;BME280;2025;48.260;16.432;2023-02-01T10:48:15;99835.63;;;5.46;65.46
4022;BME280;2025;48.260;16.432;2023-02-01T10:50:48;99840.81;;;5.36;65.30
4022;BME280;2025;48.260;16.432;2023-02-01T10:53:19;99832.28;;;5.34;65.22
4022;BME280;2025;48.260;16.432;2023-02-01T10:55:49;99840.66;;;5.38;67.08
4022;BME280;2025;48.260;16.432;2023-02-01T10:58:18;99835.59;;;5.36;64.64
4022;BME280;2025;48.260;16.432;2023-02-01T11:00:48;99853.00;;;5.26;65.33
4022;BME280;2025;48.260;16.432;2023-02-01T11:03:39;99845.25;;;5.15;67.73
4022;BME280;2025;48.260;16.432;2023-02-01T11:06:21;99834.81;;;5.55;66.78
4022;BME280;2025;48.260;16.432;2023-02-01T11:08:51;99853.72;;;5.98;65.29
4022;BME280;2025;48.260;16.432;2023-02-01T11:11:18;99848.69;;;5.65;65.44
4022;BME280;2025;48.260;16.432;2023-02-01T11:13:52;99854.41;;;5.40;67.29
4022;BME280;2025;48.260;16.432;2023-02-01T11:16:19;99848.44;;;5.18;68.97
4022;BME280;2025;48.260;16.432;2023-02-01T11:18:53;99861.28;;;5.00;68.70
4022;BME280;2025;48.260;16.432;2023-02-01T11:21:21;99867.72;;;4.96;69.59
4022;BME280;2025;48.260;16.432;2023-02-01T11:23:48;99845.63;;;5.00;70.25
4022;BME280;2025;48.260;16.432;2023-02-01T11:26:21;99841.19;;;4.91;69.55
4022;BME280;2025;48.260;16.432;2023-02-01T11:28:56;99830.84;;;4.80;70.32
4022;BME280;2025;48.260;16.432;2023-02-01T11:31:25;99831.59;;;4.71;69.75
4022;BME280;2025;48.260;16.432;2023-02-01T11:33:59;99852.25;;;4.53;70.64
4022;BME280;2025;48.260;16.432;2023-02-01T11:36:30;99855.63;;;4.43;71.87
4022;BME280;2025;48.260;16.432;2023-02-01T11:39:10;99851.13;;;4.25;73.99
4022;BME280;2025;48.260;16.432;2023-02-01T11:41:44;99861.38;;;4.05;74.36
4022;BME280;2025;48.260;16.432;2023-02-01T11:44:22;99851.97;;;3.82;76.53
4022;BME280;2025;48.260;16.432;2023-02-01T11:46:53;99884.69;;;3.74;77.73
4022;BME280;2025;48.260;16.432;2023-02-01T11:49:23;99863.13;;;3.72;77.90
4022;BME280;2025;48.260;16.432;2023-02-01T11:52:03;99867.31;;;3.64;80.46
4022;BME280;2025;48.260;16.432;2023-02-01T11:54:45;99873.94;;;3.56;78.80
4022;BME280;2025;48.260;16.432;2023-02-01T11:57:29;99852.31;;;3.45;78.89
4022;BME280;2025;48.260;16.432;2023-02-01T12:00:16;99869.97;;;3.41;80.63
4022;BME280;2025;48.260;16.432;2023-02-01T12:02:58;99862.00;;;3.43;81.62
4022;BME280;2025;48.260;16.432;2023-02-01T12:05:46;99882.72;;;3.44;80.83
4022;BME280;2025;48.260;16.432;2023-02-01T12:08:30;99865.69;;;3.40;81.06
4022;BME280;2025;48.260;16.432;2023-02-01T12:11:21;99857.75;;;3.42;81.23
4022;BME280;2025;48.260;16.432;2023-02-01T12:13:57;99859.19;;;3.46;82.70
4022;BME280;2025;48.260;16.432;2023-02-01T12:16:32;99860.25;;;3.54;82.76
4022;BME280;2025;48.260;16.432;2023-02-01T12:19:14;99849.47;;;3.59;82.52
4022;BME280;2025;48.260;16.432;2023-02-01T12:21:56;99847.75;;;3.69;82.81
4022;BME280;2025;48.260;16.432;2023-02-01T12:24:45;99834.19;;;4.19;83.19
4022;BME280;2025;48.260;16.432;2023-02-01T12:27:40;99825.41;;;5.33;80.75
4022;BME280;2025;48.260;16.432;2023-02-01T12:30:30;99832.09;;;5.86;76.27
4022;BME280;2025;48.260;16.432;2023-02-01T12:33:05;99834.28;;;6.39;76.75
4022;BME280;2025;48.260;16.432;2023-02-01T12:35:47;99828.81;;;6.80;74.12
4022;BME280;2025;48.260;16.432;2023-02-01T12:38:32;99816.25;;;6.26;72.62
4022;BME280;2025;48.260;16.432;2023-02-01T12:41:12;99811.81;;;5.49;72.82
4022;BME280;2025;48.260;16.432;2023-02-01T12:43:47;99810.22;;;5.07;74.09
4022;BME280;2025;48.260;16.432;2023-02-01T12:46:19;99804.25;;;4.96;74.86
4022;BME280;2025;48.260;16.432;2023-02-01T12:48:55;99802.47;;;4.96;75.61
4022;BME280;2025;48.260;16.432;2023-02-01T12:51:26;99804.53;;;4.93;74.26
4022;BME280;2025;48.260;16.432;2023-02-01T12:54:00;99795.19;;;4.90;74.72
4022;BME280;2025;48.260;16.432;2023-02-01T12:56:32;99793.38;;;5.31;74.28
4022;BME280;2025;48.260;16.432;2023-02-01T12:59:03;99780.44;;;6.46;68.10
4022;BME280;2025;48.260;16.432;2023-02-01T13:01:35;99782.28;;;7.29;66.91
4022;BME280;2025;48.260;16.432;2023-02-01T13:04:08;99781.84;;;7.87;63.08
4022;BME280;2025;48.260;16.432;2023-02-01T13:06:41;99780.94;;;7.96;62.24
4022;BME280;2025;48.260;16.432;2023-02-01T13:09:18;99768.59;;;8.07;61.18
4022;BME280;2025;48.260;16.432;2023-02-01T13:11:48;99772.91;;;8.16;59.82
4022;BME280;2025;48.260;16.432;2023-02-01T13:14:23;99764.66;;;8.11;60.36
4022;BME280;2025;48.260;16.432;2023-02-01T13:16:53;99764.09;;;8.25;61.15
4022;BME280;2025;48.260;16.432;2023-02-01T13:19:28;99752.34;;;8.55;58.63
4022;BME280;2025;48.260;16.432;2023-02-01T13:21:58;99752.66;;;8.86;60.26
4022;BME280;2025;48.260;16.432;2023-02-01T13:24:33;99743.72;;;8.71;56.97
4022;BME280;2025;48.260;16.432;2023-02-01T13:27:03;99748.88;;;8.47;58.25
4022;BME280;2025;48.260;16.432;2023-02-01T13:29:31;99735.00;;;8.62;57.46
4022;BME280;2025;48.260;16.432;2023-02-01T13:32:15;99724.63;;;8.95;55.35
4022;BME280;2025;48.260;16.432;2023-02-01T13:34:59;99727.72;;;8.91;56.65
4022;BME280;2025;48.260;16.432;2023-02-01T13:37:36;99728.97;;;8.70;56.90
4022;BME280;2025;48.260;16.432;2023-02-01T13:40:22;99724.00;;;8.67;56.50
4022;BME280;2025;48.260;16.432;2023-02-01T13:42:55;99712.72;;;8.75;56.99
4022;BME280;2025;48.260;16.432;2023-02-01T13:45:25;99721.22;;;8.60;56.88
4022;BME280;2025;48.260;16.432;2023-02-01T13:47:55;99712.63;;;8.50;53.98
4022;BME280;2025;48.260;16.432;2023-02-01T13:50:25;99727.47;;;8.15;54.40
4022;BME280;2025;48.260;16.432;2023-02-01T13:52:54;99720.69;;;8.31;53.58